الصفحة الرئيسية
METAR-TAF:

METAR-TAF

مطار :

بريزبين, أستراليا

دائرة عرض: 27-23S, خط طول: 153-06E, ارتفاع: 4 متر

مراقبة الطقس الحالي

تاريخ ووقت الإصدار 28 دقيقة قبل الساعة 19:00UTC
ريح 7 عقدة من الجنوب/الجنوب الغربي
درجة الحرارة 18°درجة مئوية
الرطوبة 94%
ضغط 1021 hPa
الرؤية 10 كم أو أكثر

METAR: YBBN 161900Z AUTO 20007KT 9999 // NCD 18/17 Q1021 RF00/0/000/0

زمن: 05:28 (19:28 UTC)

توقعات

تاريخ ووقت الإصدار 2ساعات و 20 دقيقة قبل الساعة 17:08UTC
التوقعات صالحة من16 الساعة 18 UTC إلى 18 الساعة 00 UTC
ريح 6 عقدة من الجنوب/الجنوب الغربي
الرؤية 10 كم أو أكثر
غيوم متفرقة على ارتفاع 3000 قدم
من 17 الساعة 0000 UTC
ريح 10 عقدة من الشرق
الرؤية 10 كم أو أكثر
غيوم قليلة على ارتفاع 2000 قدم
غيوم متفرقة على ارتفاع 3500 قدم
زخات من الأمطار الخفيفة
من 17 الساعة 0400 UTC
ريح 10 عقدة من الشرق
الرؤية 10 كم أو أكثر
غيوم قليلة على ارتفاع 3500 قدم
من 17 الساعة 1100 UTC
ريح 6 عقدة من الجنوب/الجنوب الغربي
الرؤية 10 كم أو أكثر
غيوم متفرقة على ارتفاع 3000 قدم

TAF: YBBN 161708Z 1618/1800 20006KT 9999 SCT030 FM170000 09010KT 9999 -SHRA FEW020 SCT035 FM170400 08010KT 9999 NSW FEW035 FM171100 20006KT 9999 SCT030

أرصاد الطقس والتوقعات من أكثر من 4000 مطار (تقارير الطقس للمطار METAR والتنبؤ بالطقس بالمطارTAF).

المحطات المتاحة هي النقط الصفراء والحمراء على الخريطة.

حرك المؤشر فوق النقطة لمعرفة اسم المحطة.

ثم انقر لمعرفة أرصاد وتوقعات الطقس.

لتغيير الخارطة: اضغط على الأزرار الخضراء مع رمز الصليب الأسود للتكبير. على الزر الأخضر مع شرطة للتصغير، أو على الأسهم الخضراء للخرائط المجاورة.


METAR-TAF: